sensor_id;sensor_type;location;lat;lon;timestamp;temperature;humidity
47514;DHT22;33951;51.988;5.910;2023-02-22T00:27:24;8.70;99.90
47514;DHT22;33951;51.988;5.910;2023-02-22T00:30:31;8.60;99.90
47514;DHT22;33951;51.988;5.910;2023-02-22T00:37:00;8.70;99.90
47514;DHT22;33951;51.988;5.910;2023-02-22T00:53:59;8.50;99.90
47514;DHT22;33951;51.988;5.910;2023-02-22T05:09:38;7.30;99.90
47514;DHT22;33951;51.988;5.910;2023-02-22T05:15:39;7.20;99.90
47514;DHT22;33951;51.988;5.910;2023-02-22T05:37:18;7.10;99.90
47514;DHT22;33951;51.988;5.910;2023-02-22T05:46:39;7.20;99.90
47514;DHT22;33951;51.988;5.910;2023-02-22T05:49:20;7.20;99.90
47514;DHT22;33951;51.988;5.910;2023-02-22T05:59:46;7.30;99.90
47514;DHT22;33951;51.988;5.910;2023-02-22T06:23:46;7.30;99.90
47514;DHT22;33951;51.988;5.910;2023-02-22T06:49:13;7.10;99.90
47514;DHT22;33951;51.988;5.910;2023-02-22T06:51:46;7.20;99.90
47514;DHT22;33951;51.988;5.910;2023-02-22T07:01:42;7.30;99.90
47514;DHT22;33951;51.988;5.910;2023-02-22T07:18:52;7.10;99.90
47514;DHT22;33951;51.988;5.910;2023-02-22T07:25:27;7.20;99.90
47514;DHT22;33951;51.988;5.910;2023-02-22T08:04:20;7.70;99.90
47514;DHT22;33951;51.988;5.910;2023-02-22T08:10:32;7.70;99.90
47514;DHT22;33951;51.988;5.910;2023-02-22T08:27:37;8.00;99.90
47514;DHT22;33951;51.988;5.910;2023-02-22T08:58:50;8.30;99.90
47514;DHT22;33951;51.988;5.910;2023-02-22T09:39:42;8.80;99.90
47514;DHT22;33951;51.988;5.910;2023-02-22T10:27:32;10.40;99.90
47514;DHT22;33951;51.988;5.910;2023-02-22T10:54:52;10.90;99.90
47514;DHT22;33951;51.988;5.910;2023-02-22T10:58:15;11.00;99.90
47514;DHT22;33951;51.988;5.910;2023-02-22T11:01:41;11.20;99.90
47514;DHT22;33951;51.988;5.910;2023-02-22T11:24:23;12.10;99.90
47514;DHT22;33951;51.988;5.910;2023-02-22T11:34:41;12.50;99.90
47514;DHT22;33951;51.988;5.910;2023-02-22T11:41:14;12.90;99.90
47514;DHT22;33951;51.988;5.910;2023-02-22T11:56:10;12.80;99.90
47514;DHT22;33951;51.988;5.910;2023-02-22T11:58:44;12.90;99.90
47514;DHT22;33951;51.988;5.910;2023-02-22T12:01:54;12.90;99.90
47514;DHT22;33951;51.988;5.910;2023-02-22T12:09:42;13.00;99.90
47514;DHT22;33951;51.988;5.910;2023-02-22T12:15:11;12.80;99.90
47514;DHT22;33951;51.988;5.910;2023-02-22T12:20:46;12.90;99.90
47514;DHT22;33951;51.988;5.910;2023-02-22T12:26:38;13.10;99.90
47514;DHT22;33951;51.988;5.910;2023-02-22T12:29:08;13.20;99.90
47514;DHT22;33951;51.988;5.910;2023-02-22T12:31:41;13.40;99.90
47514;DHT22;33951;51.988;5.910;2023-02-22T12:40:23;13.70;99.90
47514;DHT22;33951;51.988;5.910;2023-02-22T12:45:59;13.80;99.90
47514;DHT22;33951;51.988;5.910;2023-02-22T12:48:57;13.80;99.90
47514;DHT22;33951;51.988;5.910;2023-02-22T12:51:46;14.00;99.90
47514;DHT22;33951;51.988;5.910;2023-02-22T12:54:22;14.00;99.90
47514;DHT22;33951;51.988;5.910;2023-02-22T12:59:45;14.10;99.90
47514;DHT22;33951;51.988;5.910;2023-02-22T13:02:45;14.10;99.90
47514;DHT22;33951;51.988;5.910;2023-02-22T13:05:18;13.90;99.90
47514;DHT22;33951;51.988;5.910;2023-02-22T13:11:03;13.80;99.90
47514;DHT22;33951;51.988;5.910;2023-02-22T13:13:39;13.70;99.90
47514;DHT22;33951;51.988;5.910;2023-02-22T13:16:36;13.70;99.90
47514;DHT22;33951;51.988;5.910;2023-02-22T13:27:08;13.60;99.90
47514;DHT22;33951;51.988;5.910;2023-02-22T13:29:41;13.40;99.90
47514;DHT22;33951;51.988;5.910;2023-02-22T13:35:14;13.40;99.90
47514;DHT22;33951;51.988;5.910;2023-02-22T13:37:57;13.60;99.90
47514;DHT22;33951;51.988;5.910;2023-02-22T13:43:24;13.10;99.90
47514;DHT22;33951;51.988;5.910;2023-02-22T13:46:20;12.80;99.90
47514;DHT22;33951;51.988;5.910;2023-02-22T13:51:56;12.50;99.90
47514;DHT22;33951;51.988;5.910;2023-02-22T13:54:34;12.60;99.90
47514;DHT22;33951;51.988;5.910;2023-02-22T13:57:02;12.60;99.90
47514;DHT22;33951;51.988;5.910;2023-02-22T13:59:32;12.70;99.90
47514;DHT22;33951;51.988;5.910;2023-02-22T14:02:03;12.70;99.90
47514;DHT22;33951;51.988;5.910;2023-02-22T14:06:57;13.00;99.90
47514;DHT22;33951;51.988;5.910;2023-02-22T14:09:52;13.20;99.90
47514;DHT22;33951;51.988;5.910;2023-02-22T14:17:42;12.80;99.90
47514;DHT22;33951;51.988;5.910;2023-02-22T14:22:45;12.50;99.90
47514;DHT22;33951;51.988;5.910;2023-02-22T14:25:35;12.40;99.90
47514;DHT22;33951;51.988;5.910;2023-02-22T14:28:06;12.50;99.90
47514;DHT22;33951;51.988;5.910;2023-02-22T14:30:39;12.50;99.90
47514;DHT22;33951;51.988;5.910;2023-02-22T14:36:22;12.60;99.90
47514;DHT22;33951;51.988;5.910;2023-02-22T14:38:50;12.60;99.90
47514;DHT22;33951;51.988;5.910;2023-02-22T14:41:21;12.50;99.90
47514;DHT22;33951;51.988;5.910;2023-02-22T14:43:54;12.50;99.90
47514;DHT22;33951;51.988;5.910;2023-02-22T14:46:26;12.40;99.90
47514;DHT22;33951;51.988;5.910;2023-02-22T14:49:01;12.20;99.90
47514;DHT22;33951;51.988;5.910;2023-02-22T14:51:33;11.90;99.90
47514;DHT22;33951;51.988;5.910;2023-02-22T14:54:17;11.70;99.90
47514;DHT22;33951;51.988;5.910;2023-02-22T15:00:05;11.50;99.90
47514;DHT22;33951;51.988;5.910;2023-02-22T15:02:47;11.40;99.90
47514;DHT22;33951;51.988;5.910;2023-02-22T15:05:17;11.30;99.90
47514;DHT22;33951;51.988;5.910;2023-02-22T15:07:54;11.10;99.90
47514;DHT22;33951;51.988;5.910;2023-02-22T15:10:30;11.20;99.90
47514;DHT22;33951;51.988;5.910;2023-02-22T15:13:01;11.20;99.90
47514;DHT22;33951;51.988;5.910;2023-02-22T15:18:18;11.30;99.90
47514;DHT22;33951;51.988;5.910;2023-02-22T15:20:46;11.40;99.90
47514;DHT22;33951;51.988;5.910;2023-02-22T15:23:14;11.30;99.90
47514;DHT22;33951;51.988;5.910;2023-02-22T15:25:46;11.20;99.90
47514;DHT22;33951;51.988;5.910;2023-02-22T15:28:13;11.10;99.90
47514;DHT22;33951;51.988;5.910;2023-02-22T15:30:40;11.20;99.90
47514;DHT22;33951;51.988;5.910;2023-02-22T15:33:18;11.10;99.90
47514;DHT22;33951;51.988;5.910;2023-02-22T15:35:57;11.10;99.90
47514;DHT22;33951;51.988;5.910;2023-02-22T15:38:31;11.00;99.90
47514;DHT22;33951;51.988;5.910;2023-02-22T15:41:05;11.00;99.90
47514;DHT22;33951;51.988;5.910;2023-02-22T15:43:33;11.00;99.90
47514;DHT22;33951;51.988;5.910;2023-02-22T15:45:59;11.00;99.90
47514;DHT22;33951;51.988;5.910;2023-02-22T15:48:33;10.90;99.90
47514;DHT22;33951;51.988;5.910;2023-02-22T15:51:14;11.00;99.90
47514;DHT22;33951;51.988;5.910;2023-02-22T15:53:43;10.90;99.90
47514;DHT22;33951;51.988;5.910;2023-02-22T15:56:30;11.00;99.90
47514;DHT22;33951;51.988;5.910;2023-02-22T15:59:08;10.80;99.90
47514;DHT22;33951;51.988;5.910;2023-02-22T16:01:38;10.70;99.90
47514;DHT22;33951;51.988;5.910;2023-02-22T16:04:05;10.60;99.90
47514;DHT22;33951;51.988;5.910;2023-02-22T16:06:38;10.60;99.90
47514;DHT22;33951;51.988;5.910;2023-02-22T16:11:39;10.60;99.90
47514;DHT22;33951;51.988;5.910;2023-02-22T16:14:30;10.50;99.90
47514;DHT22;33951;51.988;5.910;2023-02-22T16:17:23;10.50;99.90
47514;DHT22;33951;51.988;5.910;2023-02-22T16:19:53;10.60;99.90
47514;DHT22;33951;51.988;5.910;2023-02-22T16:28:03;10.50;99.90
47514;DHT22;33951;51.988;5.910;2023-02-22T16:30:56;10.50;99.90
47514;DHT22;33951;51.988;5.910;2023-02-22T16:33:24;10.40;99.90
47514;DHT22;33951;51.988;5.910;2023-02-22T16:35:54;10.40;99.90
47514;DHT22;33951;51.988;5.910;2023-02-22T16:38:23;10.40;99.90
47514;DHT22;33951;51.988;5.910;2023-02-22T16:40:54;10.40;99.90
47514;DHT22;33951;51.988;5.910;2023-02-22T16:46:24;10.40;99.90
47514;DHT22;33951;51.988;5.910;2023-02-22T16:48:55;10.50;99.90
47514;DHT22;33951;51.988;5.910;2023-02-22T16:51:28;10.50;99.90
47514;DHT22;33951;51.988;5.910;2023-02-22T16:53:57;10.50;99.90
47514;DHT22;33951;51.988;5.910;2023-02-22T16:56:29;10.30;99.90
47514;DHT22;33951;51.988;5.910;2023-02-22T16:58:59;10.30;99.90
47514;DHT22;33951;51.988;5.910;2023-02-22T17:01:25;10.20;99.90
47514;DHT22;33951;51.988;5.910;2023-02-22T17:03:54;10.00;99.90
47514;DHT22;33951;51.988;5.910;2023-02-22T17:06:20;9.90;99.90
47514;DHT22;33951;51.988;5.910;2023-02-22T17:08:45;9.90;99.90
47514;DHT22;33951;51.988;5.910;2023-02-22T17:11:17;9.90;99.90
47514;DHT22;33951;51.988;5.910;2023-02-22T17:13:48;9.90;99.90
47514;DHT22;33951;51.988;5.910;2023-02-22T17:16:16;9.90;99.90
47514;DHT22;33951;51.988;5.910;2023-02-22T17:18:45;10.00;99.90
47514;DHT22;33951;51.988;5.910;2023-02-22T17:21:14;10.10;99.90
47514;DHT22;33951;51.988;5.910;2023-02-22T17:23:41;10.00;99.90
47514;DHT22;33951;51.988;5.910;2023-02-22T17:26:10;9.90;99.90
47514;DHT22;33951;51.988;5.910;2023-02-22T17:28:38;9.80;99.90
47514;DHT22;33951;51.988;5.910;2023-02-22T17:31:23;9.80;99.90
47514;DHT22;33951;51.988;5.910;2023-02-22T17:33:51;9.80;99.90
47514;DHT22;33951;51.988;5.910;2023-02-22T17:36:17;9.70;99.90
47514;DHT22;33951;51.988;5.910;2023-02-22T17:38:51;9.80;99.90
47514;DHT22;33951;51.988;5.910;2023-02-22T17:41:17;10.00;99.90
47514;DHT22;33951;51.988;5.910;2023-02-22T17:43:43;10.10;99.90
47514;DHT22;33951;51.988;5.910;2023-02-22T17:46:16;10.00;99.90
47514;DHT22;33951;51.988;5.910;2023-02-22T17:48:44;10.00;99.90
47514;DHT22;33951;51.988;5.910;2023-02-22T17:51:10;9.90;99.90
47514;DHT22;33951;51.988;5.910;2023-02-22T18:13:07;9.80;99.90
47514;DHT22;33951;51.988;5.910;2023-02-22T18:18:51;10.00;99.90
47514;DHT22;33951;51.988;5.910;2023-02-22T18:21:27;9.70;99.90
47514;DHT22;33951;51.988;5.910;2023-02-22T18:27:42;9.70;99.90
47514;DHT22;33951;51.988;5.910;2023-02-22T18:30:09;9.60;99.90
47514;DHT22;33951;51.988;5.910;2023-02-22T18:32:36;9.50;99.90
47514;DHT22;33951;51.988;5.910;2023-02-22T18:35:02;9.50;99.90
47514;DHT22;33951;51.988;5.910;2023-02-22T18:37:32;9.60;99.90
47514;DHT22;33951;51.988;5.910;2023-02-22T18:39:58;9.40;99.90
47514;DHT22;33951;51.988;5.910;2023-02-22T18:42:30;9.40;99.90
47514;DHT22;33951;51.988;5.910;2023-02-22T18:44:58;9.40;99.90
47514;DHT22;33951;51.988;5.910;2023-02-22T18:47:27;9.30;99.90
47514;DHT22;33951;51.988;5.910;2023-02-22T18:49:55;9.30;99.90
47514;DHT22;33951;51.988;5.910;2023-02-22T18:52:21;9.20;99.90
47514;DHT22;33951;51.988;5.910;2023-02-22T18:54:48;9.30;99.90
47514;DHT22;33951;51.988;5.910;2023-02-22T18:57:14;9.20;99.90
47514;DHT22;33951;51.988;5.910;2023-02-22T18:59:43;9.30;99.90
47514;DHT22;33951;51.988;5.910;2023-02-22T19:02:26;9.30;99.90
47514;DHT22;33951;51.988;5.910;2023-02-22T19:04:52;9.40;99.90
47514;DHT22;33951;51.988;5.910;2023-02-22T19:07:25;9.50;99.90
47514;DHT22;33951;51.988;5.910;2023-02-22T19:09:56;9.40;99.90
47514;DHT22;33951;51.988;5.910;2023-02-22T19:12:25;9.40;99.90
47514;DHT22;33951;51.988;5.910;2023-02-22T19:14:54;9.30;99.90
47514;DHT22;33951;51.988;5.910;2023-02-22T19:17:22;9.30;99.90
47514;DHT22;33951;51.988;5.910;2023-02-22T19:19:48;9.30;99.90
47514;DHT22;33951;51.988;5.910;2023-02-22T19:22:17;9.30;99.90
47514;DHT22;33951;51.988;5.910;2023-02-22T19:24:44;9.20;99.90
47514;DHT22;33951;51.988;5.910;2023-02-22T19:27:13;9.20;99.90
47514;DHT22;33951;51.988;5.910;2023-02-22T19:29:39;9.20;99.90
47514;DHT22;33951;51.988;5.910;2023-02-22T19:32:08;9.20;99.90
47514;DHT22;33951;51.988;5.910;2023-02-22T19:34:36;9.20;99.90
47514;DHT22;33951;51.988;5.910;2023-02-22T19:37:03;9.20;99.90
47514;DHT22;33951;51.988;5.910;2023-02-22T19:39:33;9.20;99.90
47514;DHT22;33951;51.988;5.910;2023-02-22T19:42:03;9.30;99.90
47514;DHT22;33951;51.988;5.910;2023-02-22T19:44:30;9.50;99.90
47514;DHT22;33951;51.988;5.910;2023-02-22T19:46:57;9.40;99.90
47514;DHT22;33951;51.988;5.910;2023-02-22T19:49:26;9.50;99.90
47514;DHT22;33951;51.988;5.910;2023-02-22T19:51:53;9.60;99.90
47514;DHT22;33951;51.988;5.910;2023-02-22T19:54:22;9.80;99.90
47514;DHT22;33951;51.988;5.910;2023-02-22T19:56:50;9.90;99.90
47514;DHT22;33951;51.988;5.910;2023-02-22T19:59:17;9.90;99.90
47514;DHT22;33951;51.988;5.910;2023-02-22T20:01:47;9.80;99.90
47514;DHT22;33951;51.988;5.910;2023-02-22T20:04:23;9.80;99.90
47514;DHT22;33951;51.988;5.910;2023-02-22T20:06:53;9.80;99.90
47514;DHT22;33951;51.988;5.910;2023-02-22T20:09:22;9.90;99.90
47514;DHT22;33951;51.988;5.910;2023-02-22T20:11:56;9.80;99.90
47514;DHT22;33951;51.988;5.910;2023-02-22T20:14:25;9.80;99.90
47514;DHT22;33951;51.988;5.910;2023-02-22T20:16:53;9.80;99.90
47514;DHT22;33951;51.988;5.910;2023-02-22T20:19:22;9.80;99.90
47514;DHT22;33951;51.988;5.910;2023-02-22T20:21:53;9.90;99.90
47514;DHT22;33951;51.988;5.910;2023-02-22T20:24:26;9.80;99.90
47514;DHT22;33951;51.988;5.910;2023-02-22T20:26:52;9.70;99.90
47514;DHT22;33951;51.988;5.910;2023-02-22T20:29:23;9.70;99.90
47514;DHT22;33951;51.988;5.910;2023-02-22T20:32:01;9.60;99.90
47514;DHT22;33951;51.988;5.910;2023-02-22T20:34:29;9.60;99.90
47514;DHT22;33951;51.988;5.910;2023-02-22T20:36:56;9.60;99.90
47514;DHT22;33951;51.988;5.910;2023-02-22T20:39:23;9.60;99.90
47514;DHT22;33951;51.988;5.910;2023-02-22T20:41:53;9.40;99.90
47514;DHT22;33951;51.988;5.910;2023-02-22T20:44:20;9.40;99.90
47514;DHT22;33951;51.988;5.910;2023-02-22T20:46:46;9.30;99.90
47514;DHT22;33951;51.988;5.910;2023-02-22T20:49:30;9.30;99.90
47514;DHT22;33951;51.988;5.910;2023-02-22T20:51:59;9.50;99.90
47514;DHT22;33951;51.988;5.910;2023-02-22T20:54:27;9.60;99.90
47514;DHT22;33951;51.988;5.910;2023-02-22T20:56:53;9.70;99.90
47514;DHT22;33951;51.988;5.910;2023-02-22T20:59:18;9.80;99.90
47514;DHT22;33951;51.988;5.910;2023-02-22T21:01:45;9.80;99.90
47514;DHT22;33951;51.988;5.910;2023-02-22T21:04:17;9.70;99.90
47514;DHT22;33951;51.988;5.910;2023-02-22T21:06:46;9.70;99.90
47514;DHT22;33951;51.988;5.910;2023-02-22T21:09:17;9.60;99.90
47514;DHT22;33951;51.988;5.910;2023-02-22T21:11:49;9.60;99.90
47514;DHT22;33951;51.988;5.910;2023-02-22T21:14:15;9.60;99.90
47514;DHT22;33951;51.988;5.910;2023-02-22T21:16:46;9.60;99.90
47514;DHT22;33951;51.988;5.910;2023-02-22T21:19:15;9.60;99.90
47514;DHT22;33951;51.988;5.910;2023-02-22T21:21:54;9.60;99.90
47514;DHT22;33951;51.988;5.910;2023-02-22T21:24:24;9.40;99.90
47514;DHT22;33951;51.988;5.910;2023-02-22T21:26:57;9.30;99.90
47514;DHT22;33951;51.988;5.910;2023-02-22T21:29:26;9.30;99.90
47514;DHT22;33951;51.988;5.910;2023-02-22T21:32:09;9.30;99.90
47514;DHT22;33951;51.988;5.910;2023-02-22T21:34:38;9.20;99.90
47514;DHT22;33951;51.988;5.910;2023-02-22T21:37:04;9.30;99.90
47514;DHT22;33951;51.988;5.910;2023-02-22T21:39:32;9.30;99.90
47514;DHT22;33951;51.988;5.910;2023-02-22T21:41:58;9.50;99.90
47514;DHT22;33951;51.988;5.910;2023-02-22T21:44:25;9.50;99.90
47514;DHT22;33951;51.988;5.910;2023-02-22T21:46:54;9.50;99.90
47514;DHT22;33951;51.988;5.910;2023-02-22T21:49:22;9.60;99.90
47514;DHT22;33951;51.988;5.910;2023-02-22T21:51:50;9.50;99.90
47514;DHT22;33951;51.988;5.910;2023-02-22T21:54:18;9.60;99.90
47514;DHT22;33951;51.988;5.910;2023-02-22T21:56:49;9.50;99.90
47514;DHT22;33951;51.988;5.910;2023-02-22T21:59:17;9.40;99.90
47514;DHT22;33951;51.988;5.910;2023-02-22T22:01:50;9.40;99.90
47514;DHT22;33951;51.988;5.910;2023-02-22T22:04:21;9.30;99.90
47514;DHT22;33951;51.988;5.910;2023-02-22T22:06:55;9.30;99.90
47514;DHT22;33951;51.988;5.910;2023-02-22T22:09:25;9.20;99.90
47514;DHT22;33951;51.988;5.910;2023-02-22T22:11:56;9.20;99.90
47514;DHT22;33951;51.988;5.910;2023-02-22T22:14:32;9.40;99.90
47514;DHT22;33951;51.988;5.910;2023-02-22T22:16:59;9.30;99.90
47514;DHT22;33951;51.988;5.910;2023-02-22T22:19:26;9.30;99.90
47514;DHT22;33951;51.988;5.910;2023-02-22T22:21:59;9.30;99.90
47514;DHT22;33951;51.988;5.910;2023-02-22T22:24:25;9.30;99.90
47514;DHT22;33951;51.988;5.910;2023-02-22T22:26:56;9.30;99.90
47514;DHT22;33951;51.988;5.910;2023-02-22T22:29:28;9.40;99.90
47514;DHT22;33951;51.988;5.910;2023-02-22T22:31:56;9.50;99.90
47514;DHT22;33951;51.988;5.910;2023-02-22T22:34:22;9.50;99.90
47514;DHT22;33951;51.988;5.910;2023-02-22T22:36:57;9.50;99.90
47514;DHT22;33951;51.988;5.910;2023-02-22T22:39:28;9.50;99.90
47514;DHT22;33951;51.988;5.910;2023-02-22T22:41:54;9.50;99.90
47514;DHT22;33951;51.988;5.910;2023-02-22T22:44:20;9.60;99.90
47514;DHT22;33951;51.988;5.910;2023-02-22T22:46:53;9.60;99.90
47514;DHT22;33951;51.988;5.910;2023-02-22T22:49:19;9.80;99.90
47514;DHT22;33951;51.988;5.910;2023-02-22T22:51:51;9.70;99.90
47514;DHT22;33951;51.988;5.910;2023-02-22T22:54:17;9.60;99.90
47514;DHT22;33951;51.988;5.910;2023-02-22T22:56:43;9.50;99.90
47514;DHT22;33951;51.988;5.910;2023-02-22T22:59:13;9.40;99.90
47514;DHT22;33951;51.988;5.910;2023-02-22T23:01:43;9.60;99.90
47514;DHT22;33951;51.988;5.910;2023-02-22T23:04:15;9.70;99.90
47514;DHT22;33951;51.988;5.910;2023-02-22T23:06:49;9.60;99.90
47514;DHT22;33951;51.988;5.910;2023-02-22T23:09:22;9.50;99.90
47514;DHT22;33951;51.988;5.910;2023-02-22T23:12:02;9.50;99.90
47514;DHT22;33951;51.988;5.910;2023-02-22T23:14:46;9.50;99.90
47514;DHT22;33951;51.988;5.910;2023-02-22T23:17:13;9.40;99.90
47514;DHT22;33951;51.988;5.910;2023-02-22T23:19:42;9.30;99.90
47514;DHT22;33951;51.988;5.910;2023-02-22T23:22:14;9.20;99.90
47514;DHT22;33951;51.988;5.910;2023-02-22T23:24:54;9.10;99.90
47514;DHT22;33951;51.988;5.910;2023-02-22T23:27:20;9.00;99.90
47514;DHT22;33951;51.988;5.910;2023-02-22T23:29:50;9.20;99.90
47514;DHT22;33951;51.988;5.910;2023-02-22T23:32:16;9.10;99.90
47514;DHT22;33951;51.988;5.910;2023-02-22T23:34:42;9.20;99.90
47514;DHT22;33951;51.988;5.910;2023-02-22T23:37:08;9.10;99.90
47514;DHT22;33951;51.988;5.910;2023-02-22T23:39:34;9.00;99.90
47514;DHT22;33951;51.988;5.910;2023-02-22T23:42:06;9.20;99.90
47514;DHT22;33951;51.988;5.910;2023-02-22T23:44:37;9.10;99.90
47514;DHT22;33951;51.988;5.910;2023-02-22T23:47:21;9.30;99.90
47514;DHT22;33951;51.988;5.910;2023-02-22T23:49:49;9.10;99.90
47514;DHT22;33951;51.988;5.910;2023-02-22T23:52:17;9.30;99.90
47514;DHT22;33951;51.988;5.910;2023-02-22T23:54:49;9.30;99.90
47514;DHT22;33951;51.988;5.910;2023-02-22T23:57:31;9.40;99.90
